sensor_id;sensor_type;location;lat;lon;timestamp;temperature;humidity
29817;DHT22;16805;52.956;5.906;2023-12-20T02:15:25;6.90;99.90
29817;DHT22;16805;52.956;5.906;2023-12-20T02:18:47;6.90;99.90
29817;DHT22;16805;52.956;5.906;2023-12-20T02:25:14;7.00;99.90
29817;DHT22;16805;52.956;5.906;2023-12-20T02:28:20;7.00;99.90
29817;DHT22;16805;52.956;5.906;2023-12-20T02:31:23;7.00;99.90
29817;DHT22;16805;52.956;5.906;2023-12-20T02:34:24;7.00;99.90
29817;DHT22;16805;52.956;5.906;2023-12-20T02:37:06;7.00;99.90
29817;DHT22;16805;52.956;5.906;2023-12-20T02:40:33;7.00;99.90
29817;DHT22;16805;52.956;5.906;2023-12-20T02:43:09;7.00;99.90
29817;DHT22;16805;52.956;5.906;2023-12-20T02:46:37;7.00;99.90
29817;DHT22;16805;52.956;5.906;2023-12-20T02:50:03;7.00;99.90
29817;DHT22;16805;52.956;5.906;2023-12-20T02:53:13;7.00;99.90
29817;DHT22;16805;52.956;5.906;2023-12-20T02:55:51;7.00;99.90
29817;DHT22;16805;52.956;5.906;2023-12-20T02:59:07;7.00;99.90
29817;DHT22;16805;52.956;5.906;2023-12-20T03:01:54;7.00;99.90
29817;DHT22;16805;52.956;5.906;2023-12-20T03:05:13;7.00;99.90
29817;DHT22;16805;52.956;5.906;2023-12-20T03:08:08;7.00;99.90
29817;DHT22;16805;52.956;5.906;2023-12-20T03:10:51;7.00;99.90
29817;DHT22;16805;52.956;5.906;2023-12-20T03:14:23;7.00;99.90
29817;DHT22;16805;52.956;5.906;2023-12-20T03:17:28;7.00;99.90
29817;DHT22;16805;52.956;5.906;2023-12-20T03:20:31;7.00;99.90
29817;DHT22;16805;52.956;5.906;2023-12-20T03:23:29;7.00;99.90
29817;DHT22;16805;52.956;5.906;2023-12-20T03:26:34;7.00;99.90
29817;DHT22;16805;52.956;5.906;2023-12-20T03:29:17;7.00;99.90
29817;DHT22;16805;52.956;5.906;2023-12-20T03:35:39;7.00;99.90
29817;DHT22;16805;52.956;5.906;2023-12-20T03:38:17;7.00;99.90
29817;DHT22;16805;52.956;5.906;2023-12-20T03:41:35;7.00;99.90
29817;DHT22;16805;52.956;5.906;2023-12-20T03:45:10;7.00;99.90
29817;DHT22;16805;52.956;5.906;2023-12-20T03:48:12;7.00;99.90
29817;DHT22;16805;52.956;5.906;2023-12-20T03:51:29;7.00;99.90
29817;DHT22;16805;52.956;5.906;2023-12-20T03:54:36;7.00;99.90
29817;DHT22;16805;52.956;5.906;2023-12-20T04:00:34;7.00;99.90
29817;DHT22;16805;52.956;5.906;2023-12-20T04:04:08;7.10;99.90
29817;DHT22;16805;52.956;5.906;2023-12-20T04:07:17;7.10;99.90
29817;DHT22;16805;52.956;5.906;2023-12-20T04:10:03;7.10;99.90
29817;DHT22;16805;52.956;5.906;2023-12-20T04:13:16;7.10;99.90
29817;DHT22;16805;52.956;5.906;2023-12-20T04:16:05;7.10;99.90
29817;DHT22;16805;52.956;5.906;2023-12-20T04:22:13;7.20;99.90
29817;DHT22;16805;52.956;5.906;2023-12-20T04:31:03;7.20;99.90
29817;DHT22;16805;52.956;5.906;2023-12-20T04:33:47;7.20;99.90
29817;DHT22;16805;52.956;5.906;2023-12-20T04:36:34;7.20;99.90
29817;DHT22;16805;52.956;5.906;2023-12-20T04:39:43;7.20;99.90
29817;DHT22;16805;52.956;5.906;2023-12-20T04:42:47;7.20;99.90
29817;DHT22;16805;52.956;5.906;2023-12-20T04:45:37;7.20;99.90
29817;DHT22;16805;52.956;5.906;2023-12-20T04:48:56;7.30;99.90
29817;DHT22;16805;52.956;5.906;2023-12-20T04:52:04;7.30;99.90
29817;DHT22;16805;52.956;5.906;2023-12-20T04:54:55;7.30;99.90
29817;DHT22;16805;52.956;5.906;2023-12-20T04:58:16;7.30;99.90
29817;DHT22;16805;52.956;5.906;2023-12-20T05:01:29;7.30;99.90
29817;DHT22;16805;52.956;5.906;2023-12-20T05:04:41;7.30;99.90
29817;DHT22;16805;52.956;5.906;2023-12-20T05:08:04;7.30;99.90
29817;DHT22;16805;52.956;5.906;2023-12-20T05:11:14;7.30;99.90
29817;DHT22;16805;52.956;5.906;2023-12-20T05:14:53;7.40;99.90
29817;DHT22;16805;52.956;5.906;2023-12-20T05:18:26;7.40;99.90
29817;DHT22;16805;52.956;5.906;2023-12-20T05:21:57;7.40;99.90
29817;DHT22;16805;52.956;5.906;2023-12-20T05:25:04;7.40;99.90
29817;DHT22;16805;52.956;5.906;2023-12-20T05:27:43;7.40;99.90
29817;DHT22;16805;52.956;5.906;2023-12-20T06:14:11;7.50;99.90
29817;DHT22;16805;52.956;5.906;2023-12-20T06:16:37;7.60;99.90
29817;DHT22;16805;52.956;5.906;2023-12-20T06:19:11;7.60;99.90
29817;DHT22;16805;52.956;5.906;2023-12-20T06:21:39;7.60;99.90
29817;DHT22;16805;52.956;5.906;2023-12-20T06:24:14;7.60;99.90
29817;DHT22;16805;52.956;5.906;2023-12-20T07:49:34;7.80;99.90
29817;DHT22;16805;52.956;5.906;2023-12-20T07:52:42;7.80;99.90
29817;DHT22;16805;52.956;5.906;2023-12-20T07:55:22;7.90;99.90
29817;DHT22;16805;52.956;5.906;2023-12-20T12:45:02;7.50;99.90
29817;DHT22;16805;52.956;5.906;2023-12-20T12:56:52;7.40;99.90
29817;DHT22;16805;52.956;5.906;2023-12-20T12:59:51;7.40;99.90
29817;DHT22;16805;52.956;5.906;2023-12-20T13:14:53;7.40;99.90
29817;DHT22;16805;52.956;5.906;2023-12-20T13:17:32;7.40;99.90
29817;DHT22;16805;52.956;5.906;2023-12-20T13:20:54;7.40;99.90
29817;DHT22;16805;52.956;5.906;2023-12-20T13:24:04;7.40;99.90
29817;DHT22;16805;52.956;5.906;2023-12-20T13:30:03;7.40;99.90
29817;DHT22;16805;52.956;5.906;2023-12-20T13:33:26;7.40;99.90
29817;DHT22;16805;52.956;5.906;2023-12-20T13:35:52;7.40;99.90
29817;DHT22;16805;52.956;5.906;2023-12-20T13:38:24;7.40;99.90
